TRA2605 EHEH-LGSA
Flight info
| Callsign | TRA2605 |
|---|---|
| Flight time | N/A |
| Altitude | 35000 |
| Route | LNO N852 DIK M150 GEBDA/N0448F340 Y173 PABLA/N0450F350 Z721 UTABA L607 ELMEM N606 OTRES T307 DIRAB DCT ROTAR DCT MADOS DCT EBELA DCT PITAS UN732 KRK UA14 ARA UL612 TRL UJ65 SOKRI |
| Aircraft | B738/M-SDE2E3FGHIJ1RWXYZ/LB1 |
Departure
| Time | N/A |
|---|---|
| Airport | Eindhoven Airport (EHEH) |
Arrival
| Time | 2026-05-06 16:44 |
|---|---|
| Airport | Chania International Airport (LGSA) |
| Time | Latitude | Longitude | Altitude | Speed | Heading |
|---|---|---|---|---|---|
| 2026-05-06 15:56 | 39.59947 | 19.99524 | 35078 ft | 472 kts | 162° |
| 2026-05-06 15:57 | 39.53796 | 20.02606 | 35070 ft | 472 kts | 162° |
| 2026-05-06 15:57 | 39.47705 | 20.05650 | 35071 ft | 472 kts | 162° |
| 2026-05-06 15:58 | 39.41902 | 20.09660 | 35077 ft | 479 kts | 144° |
| 2026-05-06 15:58 | 39.36724 | 20.15105 | 35073 ft | 480 kts | 143° |
| 2026-05-06 15:59 | 39.31545 | 20.20573 | 35083 ft | 480 kts | 143° |
| 2026-05-06 15:59 | 39.26328 | 20.25957 | 35087 ft | 480 kts | 144° |
| 2026-05-06 16:00 | 39.21087 | 20.31340 | 35081 ft | 480 kts | 144° |
| 2026-05-06 16:00 | 39.15901 | 20.36687 | 35095 ft | 481 kts | 144° |
| 2026-05-06 16:01 | 39.10673 | 20.42080 | 35099 ft | 481 kts | 144° |
| 2026-05-06 16:01 | 39.05443 | 20.47459 | 35088 ft | 481 kts | 144° |
| 2026-05-06 16:02 | 39.00164 | 20.52749 | 35092 ft | 481 kts | 145° |
| 2026-05-06 16:02 | 38.94872 | 20.57983 | 35103 ft | 480 kts | 145° |
| 2026-05-06 16:03 | 38.89566 | 20.63255 | 35100 ft | 481 kts | 144° |
| 2026-05-06 16:03 | 38.84496 | 20.68782 | 35103 ft | 482 kts | 140° |
| 2026-05-06 16:04 | 38.79507 | 20.74522 | 35101 ft | 482 kts | 140° |
| 2026-05-06 16:04 | 38.74507 | 20.80239 | 35097 ft | 482 kts | 141° |
| 2026-05-06 16:05 | 38.69477 | 20.85914 | 35102 ft | 482 kts | 141° |
| 2026-05-06 16:05 | 38.64433 | 20.91564 | 35101 ft | 482 kts | 141° |
| 2026-05-06 16:06 | 38.59384 | 20.97207 | 35101 ft | 482 kts | 141° |
| 2026-05-06 16:06 | 38.54335 | 21.02840 | 35105 ft | 482 kts | 141° |
| 2026-05-06 16:07 | 38.50127 | 21.07528 | 35100 ft | 483 kts | 141° |
| 2026-05-06 16:07 | 38.45057 | 21.13166 | 35096 ft | 484 kts | 141° |
| 2026-05-06 16:08 | 38.39980 | 21.18801 | 35089 ft | 484 kts | 141° |
| 2026-05-06 16:08 | 38.34901 | 21.24430 | 35082 ft | 484 kts | 141° |
| 2026-05-06 16:09 | 38.29820 | 21.30049 | 35089 ft | 484 kts | 141° |
| 2026-05-06 16:09 | 38.24736 | 21.35659 | 35085 ft | 484 kts | 141° |
| 2026-05-06 16:10 | 38.19645 | 21.41267 | 35081 ft | 484 kts | 141° |
| 2026-05-06 16:10 | 38.14543 | 21.46875 | 35077 ft | 485 kts | 141° |
| 2026-05-06 16:11 | 38.09433 | 21.52481 | 35077 ft | 486 kts | 141° |
| 2026-05-06 16:11 | 38.04310 | 21.58092 | 35077 ft | 487 kts | 141° |
| 2026-05-06 16:12 | 37.99217 | 21.63659 | 35081 ft | 487 kts | 141° |
| 2026-05-06 16:12 | 37.94085 | 21.69256 | 35076 ft | 487 kts | 141° |
| 2026-05-06 16:13 | 37.88944 | 21.74856 | 35084 ft | 487 kts | 141° |
| 2026-05-06 16:13 | 37.83802 | 21.80445 | 35075 ft | 488 kts | 141° |
| 2026-05-06 16:14 | 37.78650 | 21.86034 | 35075 ft | 488 kts | 141° |
| 2026-05-06 16:14 | 37.73479 | 21.91634 | 35079 ft | 487 kts | 141° |
| 2026-05-06 16:15 | 37.68319 | 21.97209 | 35068 ft | 487 kts | 141° |
| 2026-05-06 16:15 | 37.63168 | 22.02763 | 35067 ft | 488 kts | 141° |
| 2026-05-06 16:16 | 37.58008 | 22.08318 | 35075 ft | 488 kts | 141° |
| 2026-05-06 16:16 | 37.52880 | 22.13828 | 35075 ft | 488 kts | 141° |
| 2026-05-06 16:17 | 37.47709 | 22.19374 | 35085 ft | 486 kts | 141° |
| 2026-05-06 16:17 | 37.42597 | 22.24846 | 35084 ft | 480 kts | 141° |
| 2026-05-06 16:18 | 37.37506 | 22.30285 | 35080 ft | 479 kts | 141° |
| 2026-05-06 16:18 | 37.34950 | 22.33012 | 34789 ft | 486 kts | 141° |
| 2026-05-06 16:18 | 37.32354 | 22.35779 | 34414 ft | 488 kts | 141° |
| 2026-05-06 16:19 | 37.29793 | 22.38506 | 33979 ft | 487 kts | 142° |
| 2026-05-06 16:19 | 37.27217 | 22.41249 | 33549 ft | 484 kts | 142° |
| 2026-05-06 16:19 | 37.24645 | 22.43983 | 33114 ft | 484 kts | 141° |
| 2026-05-06 16:19 | 37.22069 | 22.46719 | 32680 ft | 486 kts | 141° |
| 2026-05-06 16:20 | 37.19492 | 22.49454 | 32243 ft | 486 kts | 141° |
| 2026-05-06 16:20 | 37.16906 | 22.52196 | 31804 ft | 487 kts | 141° |
| 2026-05-06 16:20 | 37.14315 | 22.54939 | 31359 ft | 488 kts | 141° |
| 2026-05-06 16:20 | 37.11722 | 22.57684 | 30916 ft | 488 kts | 141° |
| 2026-05-06 16:21 | 37.09128 | 22.60426 | 30471 ft | 488 kts | 141° |
| 2026-05-06 16:21 | 37.06534 | 22.63166 | 30031 ft | 487 kts | 141° |
| 2026-05-06 16:21 | 37.03944 | 22.65898 | 29564 ft | 488 kts | 141° |
| 2026-05-06 16:21 | 37.01343 | 22.68639 | 29118 ft | 489 kts | 141° |
| 2026-05-06 16:22 | 36.98735 | 22.71386 | 28650 ft | 491 kts | 141° |
| 2026-05-06 16:22 | 36.96115 | 22.74144 | 28183 ft | 492 kts | 141° |
| 2026-05-06 16:22 | 36.93486 | 22.76907 | 27723 ft | 494 kts | 141° |
| 2026-05-06 16:22 | 36.90859 | 22.79668 | 27238 ft | 496 kts | 141° |
| 2026-05-06 16:23 | 36.88206 | 22.82452 | 26686 ft | 499 kts | 140° |
| 2026-05-06 16:23 | 36.85549 | 22.85238 | 26206 ft | 500 kts | 140° |
| 2026-05-06 16:23 | 36.82880 | 22.88033 | 25724 ft | 502 kts | 140° |
| 2026-05-06 16:23 | 36.80203 | 22.90834 | 25232 ft | 503 kts | 140° |
| 2026-05-06 16:24 | 36.77510 | 22.93647 | 24735 ft | 505 kts | 140° |
| 2026-05-06 16:24 | 36.74804 | 22.96472 | 24238 ft | 509 kts | 140° |
| 2026-05-06 16:24 | 36.72090 | 22.99305 | 23742 ft | 508 kts | 140° |
| 2026-05-06 16:24 | 36.69414 | 23.02094 | 23226 ft | 496 kts | 140° |
| 2026-05-06 16:25 | 36.66797 | 23.04819 | 22739 ft | 486 kts | 140° |
| 2026-05-06 16:25 | 36.64228 | 23.07493 | 22272 ft | 477 kts | 140° |
| 2026-05-06 16:25 | 36.61703 | 23.10117 | 21812 ft | 468 kts | 140° |
| 2026-05-06 16:25 | 36.59228 | 23.12688 | 21365 ft | 460 kts | 140° |
| 2026-05-06 16:26 | 36.56779 | 23.15229 | 20935 ft | 458 kts | 140° |
| 2026-05-06 16:26 | 36.54332 | 23.17767 | 20491 ft | 459 kts | 140° |
| 2026-05-06 16:26 | 36.51880 | 23.20307 | 20037 ft | 457 kts | 140° |
| 2026-05-06 16:26 | 36.49451 | 23.22822 | 19581 ft | 453 kts | 140° |
| 2026-05-06 16:27 | 36.47042 | 23.25314 | 19143 ft | 450 kts | 140° |
| 2026-05-06 16:27 | 36.44644 | 23.27793 | 18697 ft | 447 kts | 140° |
| 2026-05-06 16:27 | 36.42262 | 23.30252 | 18257 ft | 444 kts | 140° |
| 2026-05-06 16:27 | 36.39899 | 23.32691 | 17823 ft | 441 kts | 141° |
| 2026-05-06 16:28 | 36.37577 | 23.35085 | 17393 ft | 437 kts | 141° |
| 2026-05-06 16:28 | 36.35257 | 23.37476 | 16956 ft | 430 kts | 140° |
| 2026-05-06 16:28 | 36.32979 | 23.39820 | 16533 ft | 422 kts | 140° |
| 2026-05-06 16:28 | 36.30712 | 23.42151 | 16115 ft | 414 kts | 140° |
| 2026-05-06 16:29 | 36.28541 | 23.44382 | 15708 ft | 408 kts | 140° |
| 2026-05-06 16:29 | 36.26374 | 23.46609 | 15317 ft | 401 kts | 140° |
| 2026-05-06 16:29 | 36.24224 | 23.48776 | 14905 ft | 395 kts | 141° |
| 2026-05-06 16:29 | 36.22078 | 23.50857 | 14503 ft | 389 kts | 142° |
| 2026-05-06 16:30 | 36.19950 | 23.52893 | 14123 ft | 384 kts | 142° |
| 2026-05-06 16:30 | 36.18527 | 23.54253 | 13861 ft | 380 kts | 142° |
| 2026-05-06 16:30 | 36.15790 | 23.56875 | 13361 ft | 373 kts | 142° |
| 2026-05-06 16:30 | 36.13752 | 23.58831 | 12967 ft | 369 kts | 142° |
| 2026-05-06 16:31 | 36.11738 | 23.60767 | 12587 ft | 364 kts | 142° |
| 2026-05-06 16:31 | 36.09749 | 23.62681 | 12212 ft | 360 kts | 142° |
| 2026-05-06 16:31 | 36.07787 | 23.64569 | 11851 ft | 356 kts | 142° |
| 2026-05-06 16:31 | 36.05846 | 23.66436 | 11468 ft | 352 kts | 142° |
| 2026-05-06 16:32 | 36.03923 | 23.68285 | 11097 ft | 349 kts | 142° |
| 2026-05-06 16:32 | 36.02019 | 23.70113 | 10731 ft | 345 kts | 142° |
| 2026-05-06 16:32 | 36.00134 | 23.71922 | 10366 ft | 341 kts | 142° |
| 2026-05-06 16:32 | 35.98286 | 23.73693 | 10168 ft | 328 kts | 142° |
| 2026-05-06 16:33 | 35.96518 | 23.75387 | 10023 ft | 315 kts | 142° |
| 2026-05-06 16:33 | 35.94810 | 23.77025 | 9740 ft | 307 kts | 142° |
| 2026-05-06 16:33 | 35.93141 | 23.78624 | 9447 ft | 300 kts | 142° |
| 2026-05-06 16:34 | 35.89923 | 23.81704 | 8858 ft | 289 kts | 142° |
| 2026-05-06 16:34 | 35.88355 | 23.83206 | 8561 ft | 282 kts | 142° |
| 2026-05-06 16:34 | 35.86821 | 23.84673 | 8293 ft | 276 kts | 142° |
| 2026-05-06 16:34 | 35.85323 | 23.86107 | 8007 ft | 270 kts | 142° |
| 2026-05-06 16:35 | 35.83849 | 23.87517 | 7694 ft | 266 kts | 142° |
| 2026-05-06 16:35 | 35.82413 | 23.88888 | 7527 ft | 257 kts | 142° |
| 2026-05-06 16:35 | 35.81023 | 23.90214 | 7409 ft | 250 kts | 142° |
| 2026-05-06 16:35 | 35.79649 | 23.91526 | 7309 ft | 250 kts | 142° |
| 2026-05-06 16:36 | 35.78245 | 23.92817 | 7117 ft | 254 kts | 150° |
| 2026-05-06 16:36 | 35.76555 | 23.93415 | 6847 ft | 255 kts | 181° |
| 2026-05-06 16:36 | 35.74865 | 23.92912 | 6602 ft | 249 kts | 211° |
| 2026-05-06 16:36 | 35.73514 | 23.91640 | 6354 ft | 243 kts | 225° |
| 2026-05-06 16:37 | 35.72305 | 23.90221 | 6073 ft | 238 kts | 224° |
| 2026-05-06 16:37 | 35.71067 | 23.88895 | 5826 ft | 234 kts | 220° |
| 2026-05-06 16:37 | 35.69798 | 23.87680 | 5575 ft | 229 kts | 218° |
| 2026-05-06 16:37 | 35.68511 | 23.86558 | 5333 ft | 224 kts | 215° |
| 2026-05-06 16:38 | 35.67198 | 23.85555 | 5092 ft | 220 kts | 208° |
| 2026-05-06 16:38 | 35.65745 | 23.85069 | 4852 ft | 216 kts | 181° |
| 2026-05-06 16:38 | 35.64310 | 23.85447 | 4663 ft | 208 kts | 153° |
| 2026-05-06 16:38 | 35.63232 | 23.86557 | 4450 ft | 200 kts | 127° |
| 2026-05-06 16:39 | 35.62469 | 23.87997 | 4157 ft | 205 kts | 121° |
| 2026-05-06 16:39 | 35.61769 | 23.89534 | 3866 ft | 205 kts | 118° |
| 2026-05-06 16:39 | 35.61148 | 23.91099 | 3636 ft | 202 kts | 115° |
| 2026-05-06 16:39 | 35.60583 | 23.92665 | 3425 ft | 197 kts | 114° |
| 2026-05-06 16:40 | 35.60065 | 23.94165 | 3210 ft | 190 kts | 113° |
| 2026-05-06 16:40 | 35.59565 | 23.95643 | 3035 ft | 185 kts | 113° |
| 2026-05-06 16:40 | 35.59075 | 23.97103 | 2878 ft | 185 kts | 113° |
| 2026-05-06 16:40 | 35.58587 | 23.98567 | 2729 ft | 186 kts | 114° |
| 2026-05-06 16:41 | 35.58101 | 24.00032 | 2553 ft | 181 kts | 114° |
| 2026-05-06 16:41 | 35.57642 | 24.01422 | 2407 ft | 172 kts | 114° |
| 2026-05-06 16:41 | 35.57182 | 24.02804 | 2233 ft | 178 kts | 114° |
| 2026-05-06 16:41 | 35.56721 | 24.04193 | 1983 ft | 173 kts | 114° |
| 2026-05-06 16:42 | 35.56271 | 24.05550 | 1748 ft | 168 kts | 113° |
| 2026-05-06 16:42 | 35.55851 | 24.06811 | 1627 ft | 153 kts | 113° |
| 2026-05-06 16:42 | 35.55439 | 24.08033 | 1370 ft | 157 kts | 112° |
| 2026-05-06 16:42 | 35.55035 | 24.09280 | 1146 ft | 157 kts | 110° |
| 2026-05-06 16:43 | 35.54629 | 24.10516 | 929 ft | 156 kts | 110° |
| 2026-05-06 16:43 | 35.54224 | 24.11760 | 775 ft | 158 kts | 110° |
| 2026-05-06 16:43 | 35.53813 | 24.13017 | 627 ft | 158 kts | 109° |
| 2026-05-06 16:43 | 35.53426 | 24.14229 | 563 ft | 143 kts | 110° |
| 2026-05-06 16:44 | 35.53134 | 24.15116 | 561 ft | 80 kts | 113° |
| 2026-05-06 16:44 | 35.52979 | 24.15585 | 555 ft | 47 kts | 112° |
| 2026-05-06 16:44 | 35.52888 | 24.15869 | 559 ft | 21 kts | 108° |
| 2026-05-06 16:44 | 35.52939 | 24.15958 | 560 ft | 13 kts | 23° |
| 2026-05-06 16:45 | 35.53018 | 24.15973 | 555 ft | 11 kts | 339° |
| 2026-05-06 16:45 | 35.53063 | 24.15892 | 555 ft | 12 kts | 291° |
| 2026-05-06 16:45 | 35.53094 | 24.15799 | 558 ft | 12 kts | 291° |
| 2026-05-06 16:45 | 35.53124 | 24.15707 | 555 ft | 12 kts | 292° |
| 2026-05-06 16:46 | 35.53164 | 24.15581 | 555 ft | 21 kts | 291° |
| 2026-05-06 16:46 | 35.53226 | 24.15391 | 555 ft | 25 kts | 291° |
| 2026-05-06 16:46 | 35.53286 | 24.15202 | 555 ft | 23 kts | 290° |
| 2026-05-06 16:46 | 35.53347 | 24.15024 | 555 ft | 22 kts | 292° |
| 2026-05-06 16:47 | 35.53404 | 24.14850 | 555 ft | 22 kts | 295° |
| 2026-05-06 16:47 | 35.53458 | 24.14679 | 555 ft | 21 kts | 293° |
| 2026-05-06 16:47 | 35.53514 | 24.14516 | 555 ft | 20 kts | 293° |
| 2026-05-06 16:47 | 35.53563 | 24.14361 | 556 ft | 15 kts | 306° |
| 2026-05-06 16:48 | 35.53651 | 24.14365 | 560 ft | 11 kts | 7° |
| 2026-05-06 16:48 | 35.53700 | 24.14304 | 555 ft | 11 kts | 293° |
| 2026-05-06 16:48 | 35.53727 | 24.14222 | 555 ft | 10 kts | 291° |
| 2026-05-06 16:48 | 35.53752 | 24.14146 | 555 ft | 6 kts | 291° |
| 2026-05-06 16:49 | 35.53785 | 24.14127 | 555 ft | 6 kts | 8° |
| 2026-05-06 16:49 | 35.53823 | 24.14143 | 555 ft | 6 kts | 22° |
| 2026-05-06 16:49 | 35.53840 | 24.14152 | 555 ft | 0 kts | 22° |